Time;durP1;ratioP1;P1;durP2;ratioP2;P2;SDS_P1;SDS_P2;PMS_P1;PMS_P2;Temp;Humidity;BMP_temperature;BMP_pressure;BME280_temperature;BME280_humidity;BME280_pressure;Samples;Min_cycle;Max_cycle;Signal;HPM_P1;HPM_P2
2021/12/30 16:51:25;;;;;;;9.20;2.63;;;15.80;90.40;;;;;;6239548;22;1372890;-88
2021/12/30 16:53:51;;;;;;;7.00;2.15;;;15.90;90.40;;;;;;6138753;23;20072;-88
2021/12/30 16:56:17;;;;;;;8.40;2.25;;;15.90;90.30;;;;;;6139770;23;20081;-93
2021/12/30 16:58:43;;;;;;;10.65;2.78;;;15.80;90.30;;;;;;6139349;23;20006;-90
2021/12/30 17:01:09;;;;;;;9.30;2.10;;;15.80;90.60;;;;;;6114052;23;20385;-92
2021/12/30 17:03:34;;;;;;;8.18;2.80;;;15.80;90.30;;;;;;6137584;23;19997;-94
2021/12/30 17:06:00;;;;;;;5.57;2.67;;;15.80;90.30;;;;;;6140706;23;20013;-92
2021/12/30 17:08:28;;;;;;;5.22;1.88;;;15.80;90.30;;;;;;6140103;23;20089;-91
2021/12/30 17:10:56;;;;;;;8.02;2.40;;;15.80;90.30;;;;;;6138705;23;20460;-93
2021/12/30 17:13:22;;;;;;;8.23;2.53;;;15.80;90.30;;;;;;6112788;23;20005;-95
2021/12/30 17:15:48;;;;;;;24.80;8.77;;;15.80;90.30;;;;;;6135753;23;20024;-92
2021/12/30 17:18:14;;;;;;;22.30;7.00;;;15.80;90.30;;;;;;6134166;23;20377;-94
2021/12/30 17:20:40;;;;;;;19.08;6.57;;;16.10;90.30;;;;;;6134948;23;20100;-93
2021/12/30 17:23:07;;;;;;;11.05;4.10;;;15.70;90.20;;;;;;6135410;23;20092;-94
2021/12/30 17:25:33;;;;;;;13.68;4.05;;;15.70;90.20;;;;;;6142593;23;20024;-95
2021/12/30 17:28:22;;;;;;;8.60;2.58;;;15.70;90.10;;;;;;6144009;23;20013;-93
2021/12/30 19:53:32;;;;;;;5.63;2.55;;;15.20;88.80;;;;;;6181412;23;20416;-93
2021/12/30 19:55:57;;;;;;;9.98;2.90;;;15.20;88.90;;;;;;6113460;23;20013;-93
2021/12/30 19:58:23;;;;;;;7.88;3.90;;;15.20;88.80;;;;;;6118422;23;20088;-92
2021/12/30 20:00:50;;;;;;;10.82;3.70;;;15.20;89.40;;;;;;6119967;23;20039;-93
2021/12/30 20:03:22;;;;;;;12.65;2.92;;;15.20;88.80;;;;;;6147073;23;20529;-91
2021/12/30 20:05:52;;;;;;;7.15;2.63;;;15.40;88.80;;;;;;6119357;23;20021;-93
2021/12/30 20:08:19;;;;;;;10.02;3.58;;;15.20;88.70;;;;;;6126867;23;20040;-92
2021/12/30 20:10:45;;;;;;;7.63;2.35;;;15.20;88.60;;;;;;6122739;23;20021;-93
2021/12/30 20:13:14;;;;;;;9.90;2.95;;;15.20;88.60;;;;;;6144610;23;20096;-91
2021/12/30 20:15:40;;;;;;;7.45;2.40;;;15.20;88.50;;;;;;6122343;23;20481;-92
2021/12/30 20:18:06;;;;;;;6.75;2.67;;;15.10;88.50;;;;;;6144203;23;20015;-92
2021/12/30 20:20:33;;;;;;;9.65;2.42;;;15.20;88.50;;;;;;6144140;23;20347;-91
2021/12/30 20:22:59;;;;;;;8.18;3.17;;;15.10;88.40;;;;;;6143590;23;20013;-90
2021/12/30 20:25:26;;;;;;;9.77;3.00;;;15.10;88.40;;;;;;6121492;23;20022;-96
2021/12/30 20:27:53;;;;;;;7.93;2.47;;;15.10;88.40;;;;;;6145147;23;20015;-95
2021/12/30 20:30:28;;;;;;;6.82;2.90;;;15.10;88.40;;;;;;6117588;23;20012;-95
2021/12/30 20:32:57;;;;;;;;;;;15.00;88.40;;;;;;6123037;23;20008;-94
2021/12/30 20:35:27;;;;;;;9.77;2.65;;;15.00;88.40;;;;;;6119561;23;19912;-95
2021/12/30 20:37:53;;;;;;;12.80;3.45;;;15.10;88.90;;;;;;6122022;23;20008;-95
2021/12/30 20:40:21;;;;;;;11.02;3.95;;;15.00;88.30;;;;;;6112435;23;20039;-93
2021/12/30 20:42:48;;;;;;;11.05;4.05;;;15.00;88.30;;;;;;6115969;23;20413;-94
2021/12/30 20:45:15;;;;;;;14.15;3.35;;;15.00;88.30;;;;;;6117594;23;20104;-93
2021/12/30 20:47:44;;;;;;;8.20;3.60;;;15.00;88.20;;;;;;6122514;23;20458;-92
2021/12/30 20:50:14;;;;;;;9.95;3.35;;;15.00;88.20;;;;;;6123389;23;20021;-92
2021/12/30 20:52:46;;;;;;;13.30;3.15;;;15.00;88.20;;;;;;6117253;23;20110;-93
2021/12/30 20:55:14;;;;;;;9.30;4.30;;;15.00;88.20;;;;;;6115900;23;20257;-92
2021/12/30 20:57:40;;;;;;;8.52;3.80;;;15.00;88.20;;;;;;6123679;23;20012;-94
2021/12/30 21:00:13;;;;;;;8.88;4.07;;;14.90;88.20;;;;;;6121630;23;20016;-92
2021/12/30 21:02:39;;;;;;;12.02;3.40;;;15.00;88.20;;;;;;6124857;23;20008;-92
2021/12/30 21:05:08;;;;;;;8.68;4.05;;;15.00;88.20;;;;;;6120943;23;20025;-94
2021/12/30 21:07:34;;;;;;;7.50;3.40;;;14.90;88.20;;;;;;6120416;23;20103;-94
2021/12/30 21:10:04;;;;;;;16.67;3.38;;;14.90;88.20;;;;;;6146196;23;20024;-94
2021/12/30 21:12:30;;;;;;;8.60;3.15;;;15.00;88.20;;;;;;6144062;23;20040;-93
2021/12/30 21:14:56;;;;;;;9.20;3.22;;;14.90;88.10;;;;;;6142939;23;20040;-93
2021/12/30 21:17:25;;;;;;;11.25;3.25;;;14.90;88.10;;;;;;6147258;23;20377;-94
2021/12/30 21:19:51;;;;;;;8.30;3.22;;;14.90;88.10;;;;;;6146614;23;20044;-94
2021/12/30 21:22:17;;;;;;;8.73;3.25;;;14.90;88.10;;;;;;6147880;23;20086;-95
2021/12/30 21:24:43;;;;;;;9.85;3.13;;;15.20;88.30;;;;;;6145897;23;20455;-95
2021/12/30 21:27:09;;;;;;;8.23;3.17;;;14.90;88.10;;;;;;6147408;23;20044;-94
2021/12/30 21:29:35;;;;;;;7.53;3.10;;;14.90;88.00;;;;;;6147983;23;20459;-95
2021/12/30 21:32:00;;;;;;;8.35;3.92;;;14.90;88.10;;;;;;6122801;23;20004;-93
2021/12/30 21:34:26;;;;;;;8.68;3.45;;;14.90;88.00;;;;;;6145121;23;20015;-95
2021/12/30 21:36:52;;;;;;;8.90;2.83;;;14.90;88.00;;;;;;6149760;23;20005;-92
2021/12/30 21:39:18;;;;;;;6.68;3.10;;;14.90;87.90;;;;;;6147730;23;20024;-94
2021/12/30 21:41:44;;;;;;;9.82;3.42;;;14.90;87.90;;;;;;6147546;23;20070;-94
2021/12/30 21:44:10;;;;;;;6.82;3.17;;;14.90;87.90;;;;;;6143886;23;20059;-94
2021/12/30 21:46:36;;;;;;;6.78;3.25;;;14.90;87.80;;;;;;6147761;23;20027;-93
2021/12/30 21:49:03;;;;;;;8.13;3.20;;;14.80;87.70;;;;;;6119084;23;20028;-94
2021/12/30 21:51:29;;;;;;;7.32;3.28;;;14.80;87.70;;;;;;6118199;23;20131;-94
2021/12/30 21:53:55;;;;;;;6.88;3.58;;;14.80;87.70;;;;;;6116977;23;20016;-93
2021/12/30 21:56:21;;;;;;;6.97;3.15;;;14.90;87.80;;;;;;6141123;23;20013;-94
2021/12/30 21:58:47;;;;;;;12.18;3.90;;;14.80;87.70;;;;;;6142663;23;20245;-93
2021/12/30 22:01:14;;;;;;;7.97;4.18;;;14.80;87.70;;;;;;6118098;23;20040;-93
2021/12/30 22:03:40;;;;;;;8.00;4.03;;;14.80;87.70;;;;;;6118560;23;20032;-94
2021/12/30 22:06:06;;;;;;;13.77;5.65;;;14.80;87.70;;;;;;6118622;23;20087;-94
2021/12/30 22:08:32;;;;;;;14.63;6.45;;;14.90;87.80;;;;;;6119337;23;20051;-93
2021/12/30 22:10:58;;;;;;;9.10;4.75;;;14.90;87.70;;;;;;6119105;23;20016;-94
2021/12/30 22:13:25;;;;;;;9.32;4.57;;;15.00;87.70;;;;;;6118866;23;20013;-94
2021/12/30 22:15:54;;;;;;;6.93;3.88;;;14.90;87.60;;;;;;6119050;23;20032;-94
2021/12/30 22:18:21;;;;;;;10.43;5.20;;;14.90;87.60;;;;;;6123398;23;20325;-93
2021/12/30 22:20:47;;;;;;;10.93;5.93;;;14.80;87.60;;;;;;6146507;23;20622;-94
2021/12/30 22:23:17;;;;;;;11.77;5.40;;;14.90;87.60;;;;;;6121764;23;20001;-94
2021/12/30 22:25:43;;;;;;;11.15;4.00;;;14.90;87.50;;;;;;6119754;23;20137;-94
2021/12/30 22:28:12;;;;;;;6.93;3.75;;;14.90;87.50;;;;;;6123204;23;20013;-94
2021/12/30 22:30:42;;;;;;;7.20;3.70;;;14.80;87.40;;;;;;6122081;23;20016;-94
2021/12/30 22:33:08;;;;;;;7.57;3.53;;;14.80;87.30;;;;;;6120984;23;20047;-94
2021/12/30 22:35:34;;;;;;;7.50;3.90;;;14.80;87.90;;;;;;6120053;23;20013;-93
2021/12/30 22:38:00;;;;;;;7.05;3.10;;;14.80;87.40;;;;;;6144193;23;20070;-95
2021/12/30 22:40:27;;;;;;;5.75;3.67;;;14.80;87.40;;;;;;6118134;23;20012;-94
2021/12/30 22:42:54;;;;;;;5.45;2.95;;;14.80;87.40;;;;;;6117882;23;20019;-94
2021/12/30 22:45:19;;;;;;;6.43;3.20;;;14.80;87.20;;;;;;6116136;23;20111;-92
2021/12/30 22:47:45;;;;;;;8.25;3.13;;;14.80;87.20;;;;;;6118761;23;20384;-93
2021/12/30 22:50:13;;;;;;;6.28;3.35;;;14.80;87.20;;;;;;6142488;23;20013;-96
2021/12/30 22:52:39;;;;;;;7.82;3.15;;;14.80;87.10;;;;;;6116910;23;20042;-93
2021/12/30 22:55:05;;;;;;;5.55;2.70;;;14.80;87.20;;;;;;6118804;23;20017;-93
2021/12/30 22:57:32;;;;;;;10.07;3.50;;;14.80;87.20;;;;;;6142495;23;20000;-94
2021/12/30 22:59:58;;;;;;;5.15;2.95;;;14.80;87.10;;;;;;6118859;23;20013;-94
2021/12/30 23:02:24;;;;;;;8.05;3.05;;;14.80;87.00;;;;;;6118715;23;20091;-94
2021/12/30 23:04:50;;;;;;;6.18;2.97;;;14.80;87.10;;;;;;6143622;23;20013;-94
2021/12/30 23:07:16;;;;;;;6.68;3.33;;;14.80;87.00;;;;;;6120937;23;20026;-91
2021/12/30 23:09:42;;;;;;;8.75;2.95;;;14.80;86.90;;;;;;6118732;23;20012;-94
2021/12/30 23:12:08;;;;;;;7.03;3.28;;;14.80;86.80;;;;;;6118232;23;20461;-93
2021/12/30 23:14:34;;;;;;;5.93;2.60;;;14.80;87.40;;;;;;6117371;23;20520;-94
2021/12/30 23:17:00;;;;;;;7.60;4.00;;;14.80;86.80;;;;;;6117116;23;20016;-92
2021/12/30 23:19:29;;;;;;;9.00;4.18;;;14.70;86.80;;;;;;6117829;23;20012;-92
2021/12/30 23:21:56;;;;;;;8.05;3.50;;;14.80;86.80;;;;;;6121267;23;20027;-94
2021/12/30 23:24:23;;;;;;;6.30;2.97;;;14.70;87.20;;;;;;6118799;23;20935;-95
2021/12/30 23:26:48;;;;;;;8.98;4.55;;;14.70;86.60;;;;;;6117832;23;20024;-93
2021/12/30 23:29:15;;;;;;;17.63;7.70;;;14.70;86.60;;;;;;6141461;23;20008;-94
2021/12/30 23:31:40;;;;;;;12.63;5.43;;;14.70;86.60;;;;;;6121964;23;20017;-94
2021/12/30 23:34:06;;;;;;;13.52;5.30;;;14.70;86.50;;;;;;6145596;23;20080;-94
2021/12/30 23:36:33;;;;;;;17.42;7.13;;;14.90;86.60;;;;;;6146021;23;20463;-95
2021/12/30 23:38:59;;;;;;;14.32;5.25;;;14.70;86.40;;;;;;6123060;23;20008;-94
2021/12/30 23:41:33;;;;;;;6.78;4.20;;;14.70;86.40;;;;;;6119665;23;20023;-94
2021/12/30 23:44:01;;;;;;;7.70;2.77;;;14.70;86.30;;;;;;6121740;23;20008;-94
2021/12/30 23:46:26;;;;;;;8.35;3.30;;;14.60;86.20;;;;;;6117939;23;20016;-95
2021/12/30 23:48:52;;;;;;;8.15;3.10;;;14.60;86.80;;;;;;6117055;23;20538;-94
2021/12/30 23:51:18;;;;;;;7.55;3.25;;;14.60;86.30;;;;;;6140794;23;20031;-94
2021/12/30 23:53:44;;;;;;;7.10;2.90;;;14.60;86.30;;;;;;6118171;23;20160;-92
2021/12/30 23:56:10;;;;;;;9.80;3.22;;;14.60;86.40;;;;;;6145359;23;20012;-94
2021/12/30 23:58:36;;;;;;;6.68;3.42;;;14.50;86.40;;;;;;6143314;23;20069;-92
